createdAt,value
2018-07-12T00:02:18.892Z,2.33
2018-07-12T00:04:47.028Z,3.07
2018-07-12T00:07:14.450Z,2.90
2018-07-12T00:09:41.822Z,2.40
2018-07-12T00:12:09.314Z,2.60
2018-07-12T00:14:36.728Z,2.83
2018-07-12T00:17:04.226Z,4.43
2018-07-12T00:19:32.249Z,2.83
2018-07-12T00:22:01.378Z,2.70
2018-07-12T00:24:28.803Z,3.03
2018-07-12T00:26:56.244Z,2.63
2018-07-12T00:29:24.039Z,3.10
2018-07-12T00:31:52.229Z,3.90
2018-07-12T00:34:19.711Z,3.97
2018-07-12T00:36:47.614Z,5.67
2018-07-12T00:39:15.125Z,4.70
2018-07-12T00:41:42.699Z,3.97
2018-07-12T00:44:10.052Z,4.00
2018-07-12T00:46:38.461Z,5.63
2018-07-12T00:49:05.960Z,4.20
2018-07-12T00:51:33.335Z,2.93
2018-07-12T00:54:00.774Z,2.70
2018-07-12T00:56:28.163Z,3.57
2018-07-12T00:58:56.191Z,3.67
2018-07-12T01:01:23.774Z,3.40
2018-07-12T01:03:51.184Z,3.00
2018-07-12T01:06:18.558Z,3.17
2018-07-12T01:08:46.032Z,3.70
2018-07-12T01:11:13.404Z,3.70
2018-07-12T01:13:40.811Z,3.83
2018-07-12T01:16:08.639Z,3.47
2018-07-12T01:18:36.070Z,3.80
2018-07-12T01:21:03.490Z,8.40
2018-07-12T01:23:45.807Z,3.23
2018-07-12T01:26:13.255Z,5.77
2018-07-12T01:28:40.622Z,4.40
2018-07-12T01:31:08.123Z,4.03
2018-07-12T01:33:35.535Z,4.07
2018-07-12T01:36:02.954Z,3.67
2018-07-12T01:38:30.389Z,5.80
2018-07-12T01:40:57.790Z,4.83
2018-07-12T01:43:25.135Z,3.90
2018-07-12T01:45:52.476Z,6.03
2018-07-12T01:48:19.946Z,4.00
2018-07-12T01:50:47.632Z,4.10
2018-07-12T01:53:15.207Z,4.50
2018-07-12T01:55:42.636Z,4.07
2018-07-12T01:58:10.522Z,4.27
2018-07-12T02:00:38.048Z,4.43
2018-07-12T02:03:05.440Z,5.97
2018-07-12T02:05:32.812Z,3.77
2018-07-12T02:08:00.187Z,4.33
2018-07-12T02:10:27.616Z,5.40
2018-07-12T02:12:55.372Z,4.67
2018-07-12T02:15:22.777Z,3.67
2018-07-12T02:17:50.185Z,3.67
2018-07-12T02:20:17.560Z,5.33
2018-07-12T02:22:45.139Z,3.57
2018-07-12T02:25:12.508Z,3.53
2018-07-12T02:27:39.967Z,2.80
2018-07-12T02:30:07.307Z,2.90
2018-07-12T02:32:34.813Z,2.70
2018-07-12T02:35:02.397Z,3.53
2018-07-12T02:37:29.736Z,3.20
2018-07-12T02:39:57.137Z,4.67
2018-07-12T02:42:24.585Z,4.00
2018-07-12T02:44:52.299Z,3.13
2018-07-12T02:47:20.178Z,3.73
2018-07-12T02:49:47.816Z,3.13
2018-07-12T02:52:15.815Z,3.50
2018-07-12T02:54:43.547Z,3.20
2018-07-12T02:57:11.067Z,3.93
2018-07-12T02:59:38.464Z,2.90
2018-07-12T03:02:05.821Z,3.73
2018-07-12T03:04:33.228Z,3.17
2018-07-12T03:07:00.591Z,4.83
2018-07-12T03:09:27.985Z,2.90
2018-07-12T03:11:55.351Z,3.17
2018-07-12T03:14:22.763Z,3.83
2018-07-12T03:16:50.129Z,3.20
2018-07-12T03:19:17.544Z,3.37
2018-07-12T03:21:45.208Z,2.73
2018-07-12T03:24:12.677Z,2.90
2018-07-12T03:26:40.046Z,2.83
2018-07-12T03:29:07.763Z,3.37
2018-07-12T03:31:35.153Z,3.63
2018-07-12T03:34:02.558Z,3.13
2018-07-12T03:36:30.311Z,3.37
2018-07-12T03:38:57.714Z,3.53
2018-07-12T03:41:25.085Z,3.33
2018-07-12T03:43:52.533Z,3.77
2018-07-12T03:46:19.922Z,4.93
2018-07-12T03:48:47.424Z,3.10
2018-07-12T03:51:14.872Z,2.50
2018-07-12T03:53:42.348Z,5.83
2018-07-12T03:56:09.737Z,2.77
2018-07-12T03:58:37.285Z,4.20
2018-07-12T04:01:04.659Z,2.93
2018-07-12T04:03:32.060Z,3.33
2018-07-12T04:05:59.445Z,3.20
2018-07-12T04:08:26.907Z,3.00
2018-07-12T04:10:54.450Z,2.60
2018-07-12T04:13:21.868Z,2.70
2018-07-12T04:15:49.590Z,3.60
2018-07-12T04:18:17.052Z,2.80
2018-07-12T04:20:44.481Z,2.73
2018-07-12T04:23:11.879Z,3.43
2018-07-12T04:25:39.362Z,4.80
2018-07-12T04:28:06.990Z,6.37
2018-07-12T04:30:34.697Z,4.47
2018-07-12T04:33:02.063Z,3.20
2018-07-12T04:35:29.423Z,3.07
2018-07-12T04:37:56.858Z,2.70
2018-07-12T04:40:24.264Z,3.80
2018-07-12T04:42:51.789Z,4.80
2018-07-12T04:45:20.369Z,3.30
2018-07-12T04:47:47.790Z,3.00
2018-07-12T04:50:15.185Z,3.50
2018-07-12T04:52:43.216Z,3.10
2018-07-12T04:55:10.620Z,3.20
2018-07-12T04:57:38.072Z,3.10
2018-07-12T05:00:06.395Z,5.97
2018-07-12T05:02:33.803Z,3.10
2018-07-12T05:05:01.505Z,5.57
2018-07-12T05:07:30.190Z,4.10
2018-07-12T05:09:57.849Z,2.90
2018-07-12T05:12:25.272Z,3.00
2018-07-12T05:14:53.333Z,4.27
2018-07-12T05:17:20.752Z,3.17
2018-07-12T05:19:48.228Z,4.37
2018-07-12T05:22:15.714Z,4.03
2018-07-12T05:24:43.124Z,6.40
2018-07-12T05:27:10.464Z,4.20
2018-07-12T05:29:37.870Z,4.07
2018-07-12T05:32:05.750Z,5.50
2018-07-12T05:34:33.450Z,3.47
2018-07-12T05:37:02.905Z,5.93
2018-07-12T05:39:31.509Z,2.97
2018-07-12T05:42:00.154Z,3.93
2018-07-12T05:44:28.947Z,3.47
2018-07-12T05:46:57.516Z,3.47
2018-07-12T05:49:26.177Z,3.60
2018-07-12T05:51:54.941Z,4.80
2018-07-12T05:54:23.664Z,3.73
2018-07-12T05:56:52.567Z,5.87
2018-07-12T05:59:21.253Z,4.90
2018-07-12T06:02:00.853Z,3.90
2018-07-12T06:04:30.017Z,3.63
2018-07-12T06:06:58.740Z,6.83
2018-07-12T06:09:27.328Z,6.07
2018-07-12T06:11:56.260Z,3.97
2018-07-12T06:14:25.475Z,3.80
2018-07-12T06:16:55.477Z,4.37
2018-07-12T06:19:24.499Z,4.17
2018-07-12T06:21:54.604Z,5.43
2018-07-12T06:24:23.641Z,3.73
2018-07-12T06:26:53.577Z,4.23
2018-07-12T06:29:22.639Z,3.77
2018-07-12T06:31:52.401Z,4.10
2018-07-12T06:34:21.067Z,3.23
2018-07-12T06:36:49.677Z,6.43
2018-07-12T06:39:19.366Z,3.77
2018-07-12T06:41:47.955Z,4.03
2018-07-12T06:44:19.098Z,3.50
2018-07-12T06:46:48.131Z,3.77
2018-07-12T06:49:16.715Z,3.97
2018-07-12T06:51:45.611Z,3.40
2018-07-12T06:54:14.263Z,4.03
2018-07-12T06:56:43.716Z,5.70
2018-07-12T06:59:12.366Z,6.00
2018-07-12T07:01:42.404Z,3.60
2018-07-12T07:04:11.581Z,5.53
2018-07-12T07:06:40.119Z,6.07
2018-07-12T07:09:09.900Z,3.70
2018-07-12T07:11:38.701Z,3.90
2018-07-12T07:14:08.079Z,4.80
2018-07-12T07:16:37.609Z,5.83
2018-07-12T07:19:06.860Z,4.50
2018-07-12T07:21:36.015Z,4.37
2018-07-12T07:24:04.764Z,5.57
2018-07-12T07:26:33.632Z,5.77
2018-07-12T07:29:03.368Z,7.07
2018-07-12T07:31:32.237Z,5.20
2018-07-12T07:34:01.054Z,6.70
2018-07-12T07:36:30.263Z,7.70
2018-07-12T07:38:58.916Z,6.67
2018-07-12T07:41:28.373Z,6.50
2018-07-12T07:43:57.721Z,6.67
2018-07-12T07:46:26.589Z,6.17
2018-07-12T07:48:55.656Z,10.07
2018-07-12T07:51:24.396Z,6.83
2018-07-12T07:53:53.290Z,6.53
2018-07-12T07:56:21.977Z,7.10
2018-07-12T07:58:51.107Z,6.50
2018-07-12T08:01:20.048Z,8.17
2018-07-12T08:03:48.882Z,7.37
2018-07-12T08:06:17.740Z,7.53
2018-07-12T08:08:46.453Z,7.00
2018-07-12T08:11:15.150Z,10.43
2018-07-12T08:13:44.204Z,7.03
2018-07-12T08:16:12.813Z,7.97
2018-07-12T08:18:41.434Z,7.23
2018-07-12T08:21:14.236Z,6.97
2018-07-12T08:23:43.365Z,6.37
2018-07-12T08:26:12.436Z,7.03
2018-07-12T08:28:41.598Z,9.00
2018-07-12T08:31:11.050Z,7.97
2018-07-12T08:33:39.941Z,6.90
2018-07-12T08:36:09.371Z,7.70
2018-07-12T08:38:38.583Z,9.87
2018-07-12T08:41:07.295Z,8.07
2018-07-12T08:43:35.936Z,8.23
2018-07-12T08:46:04.728Z,7.63
2018-07-12T08:48:33.534Z,10.47
2018-07-12T08:51:02.397Z,7.63
2018-07-12T08:53:31.849Z,7.30
2018-07-12T08:56:01.829Z,8.37
2018-07-12T08:58:31.711Z,12.57
2018-07-12T09:01:01.045Z,7.63
2018-07-12T09:03:29.389Z,7.03
2018-07-12T09:05:58.218Z,8.00
2018-07-12T09:08:26.951Z,8.20
2018-07-12T09:10:55.639Z,9.13
2018-07-12T09:13:24.443Z,7.77
2018-07-12T09:15:53.915Z,10.43
2018-07-12T09:18:22.570Z,9.00
2018-07-12T09:20:51.927Z,8.47
2018-07-12T09:23:21.006Z,11.97
2018-07-12T09:25:50.244Z,9.07
2018-07-12T09:28:19.848Z,8.00
2018-07-12T09:30:49.086Z,9.03
2018-07-12T09:33:18.209Z,6.23
2018-07-12T09:35:47.439Z,7.47
2018-07-12T09:38:40.172Z,6.20
2018-07-12T09:41:09.490Z,6.43
2018-07-12T09:43:38.761Z,6.00
2018-07-12T09:46:08.147Z,6.43
2018-07-12T09:48:37.759Z,6.03
2018-07-12T09:51:06.508Z,6.50
2018-07-12T09:53:35.348Z,5.23
2018-07-12T09:56:04.960Z,5.30
2018-07-12T09:58:34.152Z,5.50
2018-07-12T10:01:08.155Z,5.83
2018-07-12T10:03:42.563Z,5.27
2018-07-12T10:06:19.826Z,4.87
2018-07-12T10:08:53.885Z,6.07
2018-07-12T10:11:28.291Z,5.47
2018-07-12T10:14:02.704Z,4.63
2018-07-12T10:16:37.434Z,5.40
2018-07-12T10:19:09.085Z,4.77
2018-07-12T10:21:38.327Z,4.80
2018-07-12T10:24:08.135Z,4.20
2018-07-12T10:26:38.664Z,4.80
2018-07-12T10:29:08.579Z,4.97
2018-07-12T10:31:38.497Z,4.53
2018-07-12T10:34:07.913Z,4.73
2018-07-12T10:36:36.745Z,6.30
2018-07-12T10:39:07.891Z,5.43
2018-07-12T10:41:36.939Z,5.07
2018-07-12T10:44:06.360Z,4.03
2018-07-12T10:46:36.482Z,5.20
2018-07-12T10:49:05.414Z,4.53
2018-07-12T10:51:35.459Z,6.33
2018-07-12T10:54:04.456Z,5.70
2018-07-12T10:56:34.296Z,4.60
2018-07-12T10:59:03.330Z,5.70
2018-07-12T11:01:32.419Z,5.27
2018-07-12T11:04:01.796Z,5.60
2018-07-12T11:06:33.059Z,5.97
2018-07-12T11:09:02.077Z,4.27
2018-07-12T11:11:30.947Z,4.27
2018-07-12T11:14:00.307Z,3.47
2018-07-12T11:16:29.559Z,4.47
2018-07-12T11:18:59.068Z,3.73
2018-07-12T11:21:27.892Z,3.70
2018-07-12T11:23:57.601Z,4.30
2018-07-12T11:26:26.424Z,3.67
2018-07-12T11:28:55.797Z,3.70
2018-07-12T11:31:25.101Z,3.80
2018-07-12T11:33:54.419Z,3.90
2018-07-12T11:36:23.919Z,4.87
2018-07-12T11:38:53.182Z,4.03
2018-07-12T11:41:22.060Z,3.70
2018-07-12T11:43:51.458Z,3.80
2018-07-12T11:46:21.022Z,3.00
2018-07-12T11:48:50.252Z,4.27
2018-07-12T11:51:18.967Z,3.00
2018-07-12T11:53:48.781Z,6.43
2018-07-12T11:56:19.116Z,3.17
2018-07-12T11:58:48.050Z,3.60
2018-07-12T12:01:17.767Z,4.23
2018-07-12T12:03:46.626Z,3.70
2018-07-12T12:06:15.212Z,3.70
2018-07-12T12:08:44.120Z,3.30
2018-07-12T12:11:13.670Z,2.97
2018-07-12T12:13:42.327Z,2.80
2018-07-12T12:16:11.614Z,3.93
2018-07-12T12:18:40.387Z,2.80
2018-07-12T12:21:09.134Z,3.10
2018-07-12T12:23:38.142Z,2.67
2018-07-12T12:26:07.032Z,4.70
2018-07-12T12:28:35.938Z,2.43
2018-07-12T12:31:06.003Z,3.57
2018-07-12T12:33:35.179Z,2.60
2018-07-12T12:36:03.932Z,3.33
2018-07-12T12:38:32.877Z,3.50
2018-07-12T12:41:01.486Z,3.97
2018-07-12T12:43:30.126Z,3.07
2018-07-12T12:45:59.425Z,4.00
2018-07-12T12:48:28.219Z,2.63
2018-07-12T12:50:57.347Z,3.70
2018-07-12T12:53:26.528Z,3.07
2018-07-12T12:55:55.760Z,3.67
2018-07-12T12:58:25.322Z,3.17
2018-07-12T13:00:53.975Z,2.83
2018-07-12T13:03:23.410Z,2.80
2018-07-12T13:05:52.513Z,3.00
2018-07-12T13:08:21.696Z,4.40
2018-07-12T13:10:50.482Z,3.40
2018-07-12T13:13:20.121Z,4.53
2018-07-12T13:15:49.415Z,3.00
2018-07-12T13:18:18.568Z,3.07
2018-07-12T13:20:47.425Z,2.93
2018-07-12T13:23:16.266Z,3.47
2018-07-12T13:25:46.155Z,3.37
2018-07-12T13:28:14.841Z,3.10
2018-07-12T13:30:44.530Z,2.90
2018-07-12T13:33:14.870Z,2.90
2018-07-12T13:35:43.571Z,2.97
2018-07-12T13:38:13.091Z,3.07
2018-07-12T13:40:41.749Z,8.43
2018-07-12T13:43:10.816Z,6.53
2018-07-12T13:45:40.148Z,4.70
2018-07-12T13:48:09.222Z,3.03
2018-07-12T13:50:38.575Z,5.17
2018-07-12T13:53:07.569Z,3.70
2018-07-12T13:55:36.330Z,2.87
2018-07-12T13:58:05.919Z,3.70
2018-07-12T14:00:35.890Z,5.57
2018-07-12T14:03:05.904Z,3.83
2018-07-12T14:05:34.660Z,3.20
2018-07-12T14:08:03.838Z,4.17
2018-07-12T14:10:33.724Z,3.20
2018-07-12T14:13:03.332Z,2.40
2018-07-12T14:15:33.907Z,3.87
2018-07-12T14:18:03.203Z,3.03
2018-07-12T14:20:31.803Z,2.73
2018-07-12T14:23:02.022Z,2.40
2018-07-12T14:25:32.044Z,2.67
2018-07-12T14:28:01.605Z,2.53
2018-07-12T14:30:30.902Z,2.70
2018-07-12T14:32:59.733Z,3.43
2018-07-12T14:35:28.460Z,2.43
2018-07-12T14:37:57.263Z,2.77
2018-07-12T14:40:27.887Z,2.60
2018-07-12T14:42:56.520Z,4.00
2018-07-12T14:45:25.143Z,4.67
2018-07-12T14:47:55.024Z,3.90
2018-07-12T14:50:25.052Z,2.63
2018-07-12T14:52:53.790Z,2.60
2018-07-12T14:55:22.712Z,2.73
2018-07-12T14:57:52.016Z,3.47
2018-07-12T15:00:20.896Z,2.43
2018-07-12T15:02:49.909Z,2.73
2018-07-12T15:05:18.768Z,4.83
2018-07-12T15:07:48.175Z,2.50
2018-07-12T15:10:17.522Z,6.97
2018-07-12T15:12:46.308Z,2.57
2018-07-12T15:15:14.985Z,2.40
2018-07-12T15:17:43.617Z,2.80
2018-07-12T15:20:12.618Z,2.10
2018-07-12T15:22:41.543Z,5.03
2018-07-12T15:25:10.847Z,2.77
2018-07-12T15:27:40.682Z,4.47
2018-07-12T15:30:10.062Z,7.03
2018-07-12T15:32:39.372Z,3.00
2018-07-12T15:35:08.113Z,2.27
2018-07-12T15:37:42.572Z,2.33
2018-07-12T15:40:11.743Z,2.10
2018-07-12T15:42:40.411Z,2.13
2018-07-12T15:45:09.755Z,8.07
2018-07-12T15:47:39.168Z,4.43
2018-07-12T15:50:07.664Z,2.10
2018-07-12T15:52:36.999Z,2.00
2018-07-12T15:55:06.199Z,4.93
2018-07-12T15:57:35.464Z,2.30
2018-07-12T16:00:04.515Z,3.20
2018-07-12T16:02:33.219Z,4.00
2018-07-12T16:05:02.077Z,2.17
2018-07-12T16:07:30.693Z,2.63
2018-07-12T16:09:59.612Z,2.30
2018-07-12T16:12:28.788Z,1.63
2018-07-12T16:14:57.524Z,2.33
2018-07-12T16:17:26.205Z,2.10
2018-07-12T16:19:55.480Z,5.90
2018-07-12T16:22:24.390Z,2.00
2018-07-12T16:24:53.158Z,1.90
2018-07-12T16:27:23.617Z,1.97
2018-07-12T16:29:51.980Z,2.90
2018-07-12T16:32:21.055Z,2.93
2018-07-12T16:34:50.341Z,3.00
2018-07-12T16:37:19.031Z,2.87
2018-07-12T16:39:47.785Z,3.37
2018-07-12T16:42:17.855Z,2.03
2018-07-12T16:44:46.912Z,2.47
2018-07-12T16:47:15.961Z,2.00
2018-07-12T16:49:44.916Z,2.87
2018-07-12T16:52:14.133Z,2.73
2018-07-12T16:54:42.831Z,1.77
2018-07-12T16:57:11.570Z,5.20
2018-07-12T16:59:42.980Z,3.50
2018-07-12T17:02:11.448Z,10.63
2018-07-12T17:04:40.192Z,3.07
2018-07-12T17:07:09.443Z,2.17
2018-07-12T17:09:38.313Z,2.13
2018-07-12T17:12:07.346Z,2.20
2018-07-12T17:14:36.459Z,5.10
2018-07-12T17:17:05.254Z,2.30
2018-07-12T17:19:34.004Z,2.70
2018-07-12T17:22:02.658Z,2.23
2018-07-12T17:24:31.331Z,3.13
2018-07-12T17:27:00.120Z,3.30
2018-07-12T17:29:28.995Z,2.00
2018-07-12T17:31:57.565Z,1.80
2018-07-12T17:34:26.196Z,1.90
2018-07-12T17:36:54.758Z,2.77
2018-07-12T17:39:23.469Z,2.17
2018-07-12T17:41:52.024Z,2.10
2018-07-12T17:44:20.639Z,2.00
2018-07-12T17:46:49.335Z,2.00
2018-07-12T17:49:18.243Z,1.87
2018-07-12T17:51:47.188Z,2.30
2018-07-12T17:54:16.028Z,4.30
2018-07-12T17:56:44.631Z,5.97
2018-07-12T17:59:14.032Z,3.40
2018-07-12T18:01:42.695Z,3.27
2018-07-12T18:04:11.362Z,5.80
2018-07-12T18:06:40.016Z,1.80
2018-07-12T18:09:08.706Z,2.33
2018-07-12T18:11:37.700Z,2.00
2018-07-12T18:14:06.384Z,3.13
2018-07-12T18:16:34.978Z,2.30
2018-07-12T18:19:03.644Z,2.33
2018-07-12T18:21:33.160Z,3.40
2018-07-12T18:24:02.631Z,2.43
2018-07-12T18:26:31.267Z,2.10
2018-07-12T18:28:59.878Z,2.23
2018-07-12T18:31:28.625Z,2.53
2018-07-12T18:33:57.472Z,2.70
2018-07-12T18:36:26.101Z,2.50
2018-07-12T18:38:55.095Z,2.30
2018-07-12T18:41:24.192Z,2.43
2018-07-12T18:43:53.830Z,2.53
2018-07-12T18:46:22.679Z,2.90
2018-07-12T18:48:51.613Z,2.40
2018-07-12T18:51:20.308Z,3.10
2018-07-12T18:53:48.866Z,2.77
2018-07-12T18:56:17.842Z,2.17
2018-07-12T18:58:47.023Z,2.50
2018-07-12T19:01:15.915Z,5.00
2018-07-12T19:03:45.548Z,2.57
2018-07-12T19:06:14.946Z,2.50
2018-07-12T19:08:43.952Z,2.70
2018-07-12T19:11:13.048Z,2.43
2018-07-12T19:13:41.937Z,2.30
2018-07-12T19:16:10.843Z,2.60
2018-07-12T19:18:39.785Z,3.70
2018-07-12T19:21:08.396Z,6.10
2018-07-12T19:23:37.076Z,2.23
2018-07-12T19:26:06.174Z,2.87
2018-07-12T19:28:34.964Z,2.70
2018-07-12T19:31:03.602Z,2.60
2018-07-12T19:33:33.028Z,2.67
2018-07-12T19:36:01.695Z,2.30
2018-07-12T19:38:30.293Z,3.73
2018-07-12T19:40:59.474Z,4.03
2018-07-12T19:43:28.434Z,4.93
2018-07-12T19:45:57.509Z,2.53
2018-07-12T19:48:26.110Z,4.50
2018-07-12T19:50:54.794Z,2.57
2018-07-12T19:53:24.006Z,2.87
2018-07-12T19:55:52.619Z,3.20
2018-07-12T19:58:21.563Z,4.17
2018-07-12T20:00:50.672Z,3.00
2018-07-12T20:03:19.740Z,4.60
2018-07-12T20:05:48.657Z,6.47
2018-07-12T20:08:17.717Z,8.10
2018-07-12T20:10:46.603Z,3.37
2018-07-12T20:13:15.284Z,2.87
2018-07-12T20:15:43.934Z,2.90
2018-07-12T20:18:13.347Z,3.57
2018-07-12T20:20:42.129Z,3.40
2018-07-12T20:23:10.889Z,2.70
2018-07-12T20:25:39.967Z,3.13
2018-07-12T20:28:08.935Z,3.07
2018-07-12T20:30:37.729Z,5.93
2018-07-12T20:33:06.676Z,4.00
2018-07-12T20:35:35.759Z,5.63
2018-07-12T20:38:05.674Z,3.27
2018-07-12T20:40:34.353Z,3.43
2018-07-12T20:43:02.985Z,3.03
2018-07-12T20:45:32.835Z,2.53
2018-07-12T20:48:02.789Z,3.00
2018-07-12T20:50:32.127Z,2.70
2018-07-12T20:53:01.788Z,3.60
2018-07-12T20:55:31.680Z,3.77
2018-07-12T20:58:01.468Z,3.00
2018-07-12T21:00:29.743Z,2.90
2018-07-12T21:02:59.147Z,3.67
2018-07-12T21:05:27.425Z,4.97
2018-07-12T21:07:56.049Z,3.17
2018-07-12T21:10:25.236Z,3.17
2018-07-12T21:12:54.353Z,3.20
2018-07-12T21:15:24.810Z,3.23
2018-07-12T21:17:54.229Z,4.07
2018-07-12T21:20:22.826Z,2.87
2018-07-12T21:22:51.995Z,6.97
2018-07-12T21:25:21.184Z,3.73
2018-07-12T21:27:50.612Z,4.17
2018-07-12T21:30:19.349Z,5.77
2018-07-12T21:32:48.351Z,3.13
2018-07-12T21:35:17.441Z,3.33
2018-07-12T21:37:46.637Z,3.57
2018-07-12T21:40:15.619Z,4.53
2018-07-12T21:42:45.921Z,2.67
2018-07-12T21:45:14.946Z,3.10
2018-07-12T21:47:43.633Z,3.60
2018-07-12T21:50:12.475Z,2.90
2018-07-12T21:52:40.709Z,3.70
2018-07-12T21:55:10.241Z,3.23
2018-07-12T21:57:43.539Z,5.43
2018-07-12T22:00:12.907Z,3.30
2018-07-12T22:02:43.335Z,3.20
2018-07-12T22:05:12.313Z,3.27
2018-07-12T22:07:51.996Z,3.03
2018-07-12T22:10:21.666Z,3.40
2018-07-12T22:12:50.968Z,3.70
2018-07-12T22:15:19.621Z,4.10
2018-07-12T22:17:48.392Z,3.47
2018-07-12T22:20:18.012Z,3.50
2018-07-12T22:22:46.558Z,3.60
2018-07-12T22:25:15.198Z,2.90
2018-07-12T22:27:44.090Z,3.43
2018-07-12T22:30:12.692Z,3.50
2018-07-12T22:32:41.247Z,3.70
2018-07-12T22:35:09.898Z,4.00
2018-07-12T22:37:38.619Z,3.53
2018-07-12T22:40:07.276Z,4.33
2018-07-12T22:42:35.921Z,3.53
2018-07-12T22:45:04.814Z,3.40
2018-07-12T22:47:33.552Z,3.17
2018-07-12T22:50:02.444Z,5.40
2018-07-12T22:52:31.308Z,3.30
2018-07-12T22:55:00.930Z,5.73
2018-07-12T22:57:29.846Z,2.83
2018-07-12T22:59:59.089Z,5.30
2018-07-12T23:02:28.409Z,3.33
2018-07-12T23:04:56.992Z,3.43
2018-07-12T23:07:25.653Z,3.87
2018-07-12T23:09:54.761Z,3.37
2018-07-12T23:12:24.030Z,3.23
2018-07-12T23:14:53.352Z,3.83
2018-07-12T23:17:22.069Z,4.00
2018-07-12T23:19:50.690Z,3.27
2018-07-12T23:22:20.128Z,4.57
2018-07-12T23:24:49.260Z,6.17
2018-07-12T23:27:18.110Z,2.77
2018-07-12T23:29:47.337Z,3.50
2018-07-12T23:32:16.295Z,3.60
2018-07-12T23:34:45.344Z,3.67
2018-07-12T23:37:13.865Z,6.87
2018-07-12T23:39:42.474Z,3.20
2018-07-12T23:42:11.289Z,3.63
2018-07-12T23:44:39.588Z,3.47
2018-07-12T23:47:08.215Z,4.80
2018-07-12T23:49:36.820Z,4.07
2018-07-12T23:52:05.491Z,3.90
2018-07-12T23:54:34.515Z,3.90
2018-07-12T23:57:03.174Z,3.70
2018-07-12T23:59:32.103Z,5.43
